Check out our new PWSWeather beta!
PWSweather.com
Personal Weather Stations
Station Observations
KKYBOWLI8
South Glen Gables Rich Pond, Bowling Green, KY 42101

South Glen Gables Rich PondBowling Green, KY 42101

Lat: 36.89362, Lon: -86.5232

Elevation: 577

Station Type: Davis Vantage Vue

Latest ConditionsUpdated 3:30:00 AM CST Wednesday, Feb 26, 2020
Currently Today's Max Today's Min Today's Average
Temperature 42.5°F5.8°C 44.8°F7.1°C 42.5°F5.8°C 43.4°F6.3°C
Dew Point 42.5°F5.8°C 44.8°F7.1°C 42.5°F5.8°C 43.4°F6.3°C
Winds Calm Calm 2.0 mph -3.2 kmh - - 1.2 mph 1.9 kmh
Wind Gusts 1.0 mph1.6 kmh 7.0 mph11.3 kmh - -
Humidity 100% 100% 100% 100%
Pressure 29.92 in1013.2 mb 29.97 in1014.9 mb 29.92 in1013.2 mb -
Hour Temp Dew Point Humidity Winds Wind Gusts Pressure Precip Precip Rate Daily Precip Total
03:30 AM 42.5°F5.8°C 42.5°F5.8°C 100% Calm Calm 1.0 mph1.6 kmh 29.92 in1013.2 mb 0.00 in0.0 mm 0.00 in0.0 mm 0.00 in0.0 mm
03:20 AM 42.5°F5.8°C 42.5°F5.8°C 100% Calm Calm 1.0 mph1.6 kmh 29.93 in1013.5 mb 0.00 in0.0 mm 0.00 in0.0 mm 0.00 in0.0 mm
03:10 AM 42.6°F5.9°C 42.6°F5.9°C 100% 0.3 mph NNW0.5 kmh NNW 2.0 mph3.2 kmh 29.93 in1013.5 mb 0.00 in0.0 mm 0.00 in0.0 mm 0.00 in0.0 mm
03:00 AM 42.6°F5.9°C 42.6°F5.9°C 100% 1.7 mph WNW2.7 kmh WNW 5.0 mph8.0 kmh 29.92 in1013.2 mb 0.00 in0.0 mm 0.00 in0.0 mm 0.00 in0.0 mm
02:50 AM 42.7°F5.9°C 42.7°F5.9°C 100% 2.0 mph W3.2 kmh W 7.0 mph11.3 kmh 29.95 in1014.2 mb 0.00 in0.0 mm 0.00 in0.0 mm 0.00 in0.0 mm
02:40 AM 42.7°F5.9°C 42.7°F5.9°C 100% 1.1 mph W1.8 kmh W 4.0 mph6.4 kmh 29.95 in1014.2 mb 0.00 in0.0 mm 0.00 in0.0 mm 0.00 in0.0 mm
02:30 AM 42.7°F5.9°C 42.7°F5.9°C 100% 1.0 mph W1.6 kmh W 5.0 mph8.0 kmh 29.96 in1014.6 mb 0.00 in0.0 mm 0.00 in0.0 mm 0.00 in0.0 mm
02:20 AM 42.8°F6.0°C 42.8°F6.0°C 100% 1.9 mph W3.1 kmh W 4.0 mph6.4 kmh 29.96 in1014.6 mb 0.00 in0.0 mm 0.00 in0.0 mm 0.00 in0.0 mm
02:10 AM 42.9°F6.1°C 42.9°F6.1°C 100% 1.8 mph W2.9 kmh W 5.0 mph8.0 kmh 29.97 in1014.9 mb 0.00 in0.0 mm 0.00 in0.0 mm 0.00 in0.0 mm
02:00 AM 42.9°F6.1°C 42.9°F6.1°C 100% 1.5 mph W2.4 kmh W 4.0 mph6.4 kmh 29.97 in1014.9 mb 0.00 in0.0 mm 0.00 in0.0 mm 0.00 in0.0 mm
01:50 AM 43.1°F6.2°C 43.1°F6.2°C 100% 1.8 mph W2.9 kmh W 4.0 mph6.4 kmh 29.96 in1014.6 mb 0.00 in0.0 mm 0.00 in0.0 mm 0.00 in0.0 mm
01:40 AM 43.2°F6.2°C 43.2°F6.2°C 100% 2.0 mph W3.2 kmh W 4.0 mph6.4 kmh 29.96 in1014.6 mb 0.00 in0.0 mm 0.00 in0.0 mm 0.00 in0.0 mm
01:30 AM 43.4°F6.3°C 43.4°F6.3°C 100% 1.7 mph W2.7 kmh W 5.0 mph8.0 kmh 29.95 in1014.2 mb 0.00 in0.0 mm 0.00 in0.0 mm 0.00 in0.0 mm
01:20 AM 43.6°F6.4°C 43.6°F6.4°C 100% 1.1 mph W1.8 kmh W 4.0 mph6.4 kmh 29.95 in1014.2 mb 0.00 in0.0 mm 0.00 in0.0 mm 0.00 in0.0 mm
01:10 AM 43.8°F6.6°C 43.8°F6.6°C 100% 1.6 mph W2.6 kmh W 3.0 mph4.8 kmh 29.95 in1014.2 mb 0.00 in0.0 mm 0.00 in0.0 mm 0.00 in0.0 mm
01:00 AM 44.1°F6.7°C 44.1°F6.7°C 100% 1.2 mph W1.9 kmh W 4.0 mph6.4 kmh 29.95 in1014.2 mb 0.00 in0.0 mm 0.00 in0.0 mm 0.00 in0.0 mm
12:50 AM 44.5°F6.9°C 44.5°F6.9°C 100% 0.6 mph W1.0 kmh W 3.0 mph4.8 kmh 29.94 in1013.9 mb 0.00 in0.0 mm 0.00 in0.0 mm 0.00 in0.0 mm
12:40 AM 44.5°F6.9°C 44.5°F6.9°C 100% 0.5 mph W0.8 kmh W 1.0 mph1.6 kmh 29.94 in1013.9 mb 0.00 in0.0 mm 0.00 in0.0 mm 0.00 in0.0 mm
12:30 AM 44.5°F6.9°C 44.5°F6.9°C 100% 1.0 mph W1.6 kmh W 3.0 mph4.8 kmh 29.94 in1013.9 mb 0.00 in0.0 mm 0.00 in0.0 mm 0.00 in0.0 mm
12:20 AM 44.5°F6.9°C 44.5°F6.9°C 100% 1.0 mph W1.6 kmh W 4.0 mph6.4 kmh 29.95 in1014.2 mb 0.00 in0.0 mm 0.00 in0.0 mm 0.00 in0.0 mm
12:10 AM 44.7°F7.1°C 44.7°F7.1°C 100% 1.0 mph W1.6 kmh W 3.0 mph4.8 kmh 29.94 in1013.9 mb 0.00 in0.0 mm 0.00 in0.0 mm 0.00 in0.0 mm
12:00 AM 44.8°F7.1°C 44.8°F7.1°C 100% 1.0 mph W1.6 kmh W 5.0 mph8.0 kmh 29.94 in1013.9 mb 0.00 in0.0 mm 0.00 in0.0 mm 0.00 in0.0 mm